Time,TemperatureF,DewpointF,PressureIn,WindDirection,WindDirectionDegrees,WindSpeedMPH,WindSpeedGustMPH,Humidity,HourlyPrecipIn,Conditions,Clouds,dailyrainin,SolarRadiationWatts/m^2,SoftwareType,DateUTC
2013-06-16 00:00:00,63.2,60.5,30.09,SSW,205,0.0,0.0,91,0.00,,,0.00,0,Wunderground v.1.15,2013-06-16 04:00:00,
2013-06-16 00:30:00,63.2,60.8,30.10,SSW,205,0.0,0.0,92,0.00,,,0.00,0,Wunderground v.1.15,2013-06-16 04:30:00,
2013-06-16 01:00:00,63.0,60.6,30.10,SSW,205,0.0,0.0,92,0.00,,,0.00,0,Wunderground v.1.15,2013-06-16 05:00:00,
2013-06-16 01:30:00,63.4,61.3,30.11,SSW,205,0.0,0.0,93,0.00,,,0.00,0,Wunderground v.1.15,2013-06-16 05:30:00,
2013-06-16 02:00:00,63.5,61.4,30.10,SSW,205,0.0,0.0,93,0.00,,,0.00,0,Wunderground v.1.15,2013-06-16 06:00:00,
2013-06-16 02:30:00,63.7,61.6,30.10,SSW,205,0.0,0.0,93,0.00,,,0.00,0,Wunderground v.1.15,2013-06-16 06:30:00,
2013-06-16 03:00:00,63.4,61.6,30.10,SSW,205,0.0,0.0,94,0.00,,,0.00,0,Wunderground v.1.15,2013-06-16 07:00:00,
2013-06-16 03:30:00,62.6,60.8,30.09,SSW,205,0.0,0.0,94,0.00,,,0.00,0,Wunderground v.1.15,2013-06-16 07:30:00,
2013-06-16 04:00:00,62.3,60.6,30.09,SSW,205,0.0,0.0,94,0.00,,,0.00,0,Wunderground v.1.15,2013-06-16 08:00:00,
2013-06-16 04:30:00,61.8,60.1,30.09,SSW,205,0.0,0.0,94,0.00,,,0.00,0,Wunderground v.1.15,2013-06-16 08:30:00,
2013-06-16 05:00:00,61.1,59.4,30.10,SSW,205,0.0,0.0,94,0.00,,,0.00,0,Wunderground v.1.15,2013-06-16 09:00:00,
2013-06-16 05:30:00,60.7,59.3,30.10,SSW,205,0.0,0.0,95,0.00,,,0.00,0,Wunderground v.1.15,2013-06-16 09:30:00,
2013-06-16 06:00:00,60.3,58.9,30.11,SSW,205,0.0,0.0,95,0.00,,,0.00,0,Wunderground v.1.15,2013-06-16 10:00:00,
2013-06-16 06:30:00,60.4,59.0,30.12,SSW,205,0.0,0.0,95,0.00,,,0.00,21,Wunderground v.1.15,2013-06-16 10:30:00,
2013-06-16 07:00:00,61.2,59.8,30.12,NNE,25,0.0,0.0,95,0.00,,,0.00,33,Wunderground v.1.15,2013-06-16 11:00:00,
2013-06-16 07:30:00,64.3,63.1,30.13,NNE,25,0.0,0.0,96,0.00,,,0.00,181,Wunderground v.1.15,2013-06-16 11:30:00,
2013-06-16 08:00:00,68.5,67.0,30.14,NW,323,0.0,0.0,95,0.00,,,0.00,283,Wunderground v.1.15,2013-06-16 12:00:00,
2013-06-16 20:30:00,74.0,66.0,30.05,SSW,211,1.0,1.0,76,0.00,,,0.00,0,Wunderground v.1.15,2013-06-17 00:30:00,
2013-06-16 21:00:00,73.2,65.6,30.05,SW,234,1.0,1.0,77,0.00,,,0.00,0,Wunderground v.1.15,2013-06-17 01:00:00,
2013-06-16 21:30:00,71.3,65.5,30.05,SSW,209,0.0,0.0,82,0.00,,,0.00,0,Wunderground v.1.15,2013-06-17 01:30:00,
2013-06-16 22:00:00,69.8,65.1,30.06,SSW,209,0.0,0.0,85,0.00,,,0.00,0,Wunderground v.1.15,2013-06-17 02:00:00,
2013-06-16 22:30:00,69.1,65.1,30.06,SSW,209,0.0,1.0,87,0.00,,,0.00,0,Wunderground v.1.15,2013-06-17 02:30:00,
2013-06-16 23:00:00,68.6,64.9,30.06,SSW,209,0.0,0.0,88,0.00,,,0.00,0,Wunderground v.1.15,2013-06-17 03:00:00,
2013-06-16 23:30:00,68.2,64.8,30.06,SSW,209,0.0,0.0,89,0.00,,,0.00,0,Wunderground v.1.15,2013-06-17 03:30:00,